Time;durP1;ratioP1;P1;durP2;ratioP2;P2;SDS_P1;SDS_P2;PMS_P1;PMS_P2;Temp;Humidity;BMP_temperature;BMP_pressure;BME280_temperature;BME280_humidity;BME280_pressure;Samples;Min_cycle;Max_cycle;Signal;HPM_P1;HPM_P2
2022/12/03 00:01:43;;;;;;;;;;;;;;;9.19;77.06;102521.00;5116780;27;20363;-84
2022/12/03 00:04:23;;;;;;;;;;;;;;;9.20;76.93;102524.50;5124308;27;19966;-88
2022/12/03 00:09:54;;;;;;;;;;;;;;;9.20;77.17;102525.41;5116146;27;20442;-85
2022/12/03 00:12:52;;;;;;;;;;;;;;;9.21;76.92;102524.66;5129042;27;19922;-87
2022/12/03 00:15:35;;;;;;;;;;;;;;;9.17;77.14;102523.44;5132629;27;19922;-87
2022/12/03 00:18:00;;;;;;;;;;;;;;;9.19;77.02;102531.41;5111917;27;19991;-87
2022/12/03 00:20:29;;;;;;;;;;;;;;;9.19;77.25;102531.41;5115047;27;19969;-87
2022/12/03 00:23:03;;;;;;;;;;;;;;;9.20;77.00;102533.22;5113806;27;19916;-87
2022/12/03 00:25:29;;;;;;;;;;;;;;;9.17;77.27;102527.75;5093882;27;19962;-87
2022/12/03 00:27:55;;;;;;;;;;;;;;;9.20;77.00;102540.13;5114065;27;19955;-87
2022/12/03 00:30:20;;;;;;;;;;;;;;;9.18;77.11;102542.59;5111475;27;20423;-87
2022/12/03 00:32:45;;;;;;;;;;;;;;;9.20;77.31;102534.94;5113792;27;20296;-86
2022/12/03 00:35:14;;;;;;;;;;;;;;;9.17;77.16;102544.31;5127262;27;19938;-87
2022/12/03 00:37:39;;;;;;;;;;;;;;;9.19;77.00;102546.16;5114198;27;19939;-86
2022/12/03 00:40:06;;;;;;;;;;;;;;;9.16;77.08;102542.50;5134023;27;19935;-87
2022/12/03 00:42:32;;;;;;;;;;;;;;;9.19;76.88;102534.03;5114704;27;19925;-86
2022/12/03 00:44:57;;;;;;;;;;;;;;;9.21;77.22;102545.50;5092810;27;20073;-86
2022/12/03 00:47:22;;;;;;;;;;;;;;;9.22;76.75;102546.41;5130650;27;19930;-87
2022/12/03 00:49:48;;;;;;;;;;;;;;;9.18;77.10;102542.59;5131457;27;19915;-85
2022/12/03 00:52:13;;;;;;;;;;;;;;;9.20;77.00;102543.66;5112470;27;19953;-87
2022/12/03 00:54:39;;;;;;;;;;;;;;;9.20;77.05;102545.34;5127779;27;19919;-86
2022/12/03 00:57:05;;;;;;;;;;;;;;;9.19;76.98;102549.66;5126830;27;19987;-86
2022/12/03 00:59:31;;;;;;;;;;;;;;;9.19;76.86;102543.53;5114336;27;19955;-86
2022/12/03 01:01:56;;;;;;;;;;;;;;;9.17;77.09;102549.53;5131521;27;19957;-86
2022/12/03 01:04:22;;;;;;;;;;;;;;;9.18;76.78;102553.03;5109412;28;19915;-86
2022/12/03 01:06:47;;;;;;;;;;;;;;;9.21;76.82;102553.31;5104267;27;19927;-86
2022/12/03 01:09:13;;;;;;;;;;;;;;;9.18;77.21;102550.44;5112988;27;19911;-85
2022/12/03 01:11:40;;;;;;;;;;;;;;;9.21;76.86;102545.50;5110886;27;19915;-86
2022/12/03 01:14:12;;;;;;;;;;;;;;;9.21;76.71;102542.91;5111508;27;19915;-85
2022/12/03 01:16:37;;;;;;;;;;;;;;;9.22;76.89;102546.41;5096158;27;20014;-85
2022/12/03 01:19:03;;;;;;;;;;;;;;;9.21;76.80;102547.16;5121329;27;19997;-86
2022/12/03 01:21:28;;;;;;;;;;;;;;;9.19;76.91;102547.06;5108997;27;19962;-86
2022/12/03 01:23:54;;;;;;;;;;;;;;;9.19;76.90;102548.75;5111287;27;20357;-87
2022/12/03 01:26:19;;;;;;;;;;;;;;;9.16;76.70;102547.72;5129540;27;19919;-87
2022/12/03 01:28:46;;;;;;;;;;;;;;;9.17;76.86;102551.22;5103877;27;19911;-87
2022/12/03 01:33:55;;;;;;;;;;;;;;;9.20;76.81;102545.34;5122549;27;19976;-87
2022/12/03 01:36:21;;;;;;;;;;;;;;;9.21;76.87;102547.16;5102517;28;19919;-87
2022/12/03 01:38:47;;;;;;;;;;;;;;;9.20;76.97;102553.19;5099936;27;19922;-87
2022/12/03 01:41:13;;;;;;;;;;;;;;;9.19;76.61;102541.84;5112271;27;19920;-86
2022/12/03 01:43:40;;;;;;;;;;;;;;;9.20;76.62;102541.03;5102651;27;19915;-86
2022/12/03 01:46:05;;;;;;;;;;;;;;;9.19;76.78;102549.66;5123874;27;20095;-85
2022/12/03 01:48:31;;;;;;;;;;;;;;;9.21;76.85;102550.72;5109309;28;20412;-87
2022/12/03 01:51:03;;;;;;;;;;;;;;;9.21;76.85;102550.72;5094008;27;20520;-85
2022/12/03 01:53:44;;;;;;;;;;;;;;;9.20;76.93;102551.47;5093194;28;20006;-88
2022/12/03 01:56:45;;;;;;;;;;;;;;;9.21;76.79;102548.09;5088687;28;19922;-86
2022/12/03 01:59:41;;;;;;;;;;;;;;;9.20;76.77;102540.13;5095931;27;20411;-85
2022/12/03 02:02:21;;;;;;;;;;;;;;;9.20;76.72;102551.47;5105909;28;19998;-84
2022/12/03 02:04:47;;;;;;;;;;;;;;;9.19;77.07;102553.97;5109979;28;19915;-85
2022/12/03 02:07:31;;;;;;;;;;;;;;;9.20;76.46;102553.19;5110428;28;19930;-85
2022/12/03 02:09:58;;;;;;;;;;;;;;;9.22;76.88;102549.91;5108339;28;20425;-87
2022/12/03 02:12:33;;;;;;;;;;;;;;;9.21;76.52;102550.72;5096789;28;19911;-85
2022/12/03 02:14:59;;;;;;;;;;;;;;;9.19;76.61;102554.88;5112435;28;19951;-86
2022/12/03 02:17:25;;;;;;;;;;;;;;;9.24;76.36;102548.38;5105700;28;19974;-87
2022/12/03 02:19:51;;;;;;;;;;;;;;;9.20;76.65;102550.56;5095652;28;19973;-85
2022/12/03 02:22:25;;;;;;;;;;;;;;;9.19;76.58;102560.09;5082624;28;19920;-86
2022/12/03 02:25:06;;;;;;;;;;;;;;;9.22;76.51;102559.44;5079075;28;19923;-87
2022/12/03 02:27:31;;;;;;;;;;;;;;;9.20;76.60;102561.91;5106067;28;19927;-87
2022/12/03 02:29:57;;;;;;;;;;;;;;;9.19;76.98;102559.19;5109008;28;19916;-87
2022/12/03 02:32:22;;;;;;;;;;;;;;;9.19;76.79;102559.19;5111563;28;19920;-87
2022/12/03 02:34:48;;;;;;;;;;;;;;;9.20;76.65;102566.22;5099332;28;19961;-87
2022/12/03 02:37:18;;;;;;;;;;;;;;;9.20;76.37;102567.13;5099934;28;19912;-86
2022/12/03 02:39:44;;;;;;;;;;;;;;;9.20;76.53;102566.22;5093522;28;19999;-87
2022/12/03 02:44:54;;;;;;;;;;;;;;;9.19;76.75;102567.00;5101260;28;19919;-86
2022/12/03 02:47:19;;;;;;;;;;;;;;;9.17;76.88;102557.34;5117107;28;19916;-87
2022/12/03 02:49:45;;;;;;;;;;;;;;;9.16;76.91;102565.00;5089982;28;19912;-86
2022/12/03 02:52:11;;;;;;;;;;;;;;;9.20;76.76;102561.00;5095612;28;19911;-87
2022/12/03 02:54:39;;;;;;;;;;;;;;;9.19;76.72;102561.78;5112557;28;20488;-87
2022/12/03 02:57:05;;;;;;;;;;;;;;;9.18;76.60;102566.06;5110625;28;19920;-86
2022/12/03 02:59:30;;;;;;;;;;;;;;;9.21;76.45;102557.59;5112643;28;19945;-85
2022/12/03 03:01:55;;;;;;;;;;;;;;;9.22;76.49;102562.03;5113638;28;19981;-85
2022/12/03 03:04:23;;;;;;;;;;;;;;;9.21;76.80;102570.63;5111946;28;20513;-87
2022/12/03 03:06:49;;;;;;;;;;;;;;;9.20;76.27;102563.59;5082251;28;19920;-85
2022/12/03 03:09:14;;;;;;;;;;;;;;;9.21;76.38;102565.41;5083267;28;19946;-86
2022/12/03 03:11:40;;;;;;;;;;;;;;;9.21;76.64;102568.97;5078217;28;19916;-87
2022/12/03 03:14:05;;;;;;;;;;;;;;;9.21;76.58;102571.56;5115438;28;20395;-87
2022/12/03 03:16:31;;;;;;;;;;;;;;;9.20;76.50;102571.44;5126731;27;20392;-87
2022/12/03 03:18:57;;;;;;;;;;;;;;;9.18;76.65;102573.88;5111691;27;19915;-86
2022/12/03 03:21:22;;;;;;;;;;;;;;;9.20;76.29;102571.44;5107383;27;20589;-86
2022/12/03 03:23:48;;;;;;;;;;;;;;;9.21;76.58;102574.19;5133121;27;20426;-86
2022/12/03 03:26:15;;;;;;;;;;;;;;;9.22;76.34;102578.59;5115522;27;19916;-87
2022/12/03 03:28:41;;;;;;;;;;;;;;;9.21;76.21;102571.56;5115663;27;19915;-86
2022/12/03 03:31:07;;;;;;;;;;;;;;;9.22;76.25;102570.78;5103577;27;19920;-86
2022/12/03 03:33:33;;;;;;;;;;;;;;;9.20;76.55;102579.25;5105550;28;19922;-86
2022/12/03 03:35:59;;;;;;;;;;;;;;;9.20;76.59;102576.63;5102827;27;19916;-85
2022/12/03 03:38:24;;;;;;;;;;;;;;;9.20;76.53;102577.53;5097569;28;19916;-85
2022/12/03 03:40:50;;;;;;;;;;;;;;;9.20;76.15;102581.84;5109032;27;19916;-86
2022/12/03 03:43:16;;;;;;;;;;;;;;;9.20;76.42;102577.53;5106829;28;19995;-87
2022/12/03 03:45:41;;;;;;;;;;;;;;;9.21;76.32;102579.38;5111116;27;19922;-87
2022/12/03 03:48:10;;;;;;;;;;;;;;;9.19;76.71;102580.03;5083722;27;20510;-87
2022/12/03 03:50:35;;;;;;;;;;;;;;;9.22;76.51;102582.91;5103213;27;20407;-87
2022/12/03 03:53:01;;;;;;;;;;;;;;;9.20;76.43;102587.06;5107713;28;19971;-87
2022/12/03 03:55:27;;;;;;;;;;;;;;;9.21;76.56;102591.47;5102868;27;20524;-87
2022/12/03 03:57:55;;;;;;;;;;;;;;;9.26;76.04;102593.72;5086055;27;19929;-87
2022/12/03 04:00:21;;;;;;;;;;;;;;;9.17;76.46;102588.63;5094838;28;19985;-88
2022/12/03 04:02:46;;;;;;;;;;;;;;;9.20;76.41;102592.28;5107358;27;20339;-89
2022/12/03 04:05:17;;;;;;;;;;;;;;;9.16;76.30;102593.69;5115131;27;19969;-88
2022/12/03 04:07:42;;;;;;;;;;;;;;;9.18;76.24;102605.16;5102971;28;19923;-88
2022/12/03 04:13:03;;;;;;;;;;;;;;;9.15;76.19;102600.59;5045035;28;19921;-88
2022/12/03 04:15:28;;;;;;;;;;;;;;;9.19;76.08;102598.28;5091075;27;20014;-87
2022/12/03 04:20:38;;;;;;;;;;;;;;;9.21;76.05;102604.50;5104371;28;19918;-88
2022/12/03 04:23:03;;;;;;;;;;;;;;;9.22;76.22;102615.09;5106017;28;19920;-87
2022/12/03 04:30:57;;;;;;;;;;;;;;;9.17;76.32;102619.91;5110721;27;19918;-88
2022/12/03 04:36:08;;;;;;;;;;;;;;;9.22;76.38;102635.03;5111426;27;19918;-88
2022/12/03 04:38:36;;;;;;;;;;;;;;;9.12;76.36;102618.59;5089050;27;19919;-89
2022/12/03 04:41:05;;;;;;;;;;;;;;;9.19;76.42;102627.88;5113188;27;20320;-88
2022/12/03 04:43:31;;;;;;;;;;;;;;;9.20;75.92;102627.06;5114078;27;19915;-89
2022/12/03 04:45:56;;;;;;;;;;;;;;;9.20;76.10;102628.78;5112617;27;20006;-88
2022/12/03 04:48:22;;;;;;;;;;;;;;;9.17;76.35;102627.72;5107960;27;20015;-88
2022/12/03 04:50:47;;;;;;;;;;;;;;;9.20;76.04;102631.38;5089333;28;19985;-89
2022/12/03 04:53:13;;;;;;;;;;;;;;;9.19;76.36;102632.16;5095405;27;19964;-88
2022/12/03 04:55:38;;;;;;;;;;;;;;;9.15;76.08;102626.66;5095688;27;19919;-88
2022/12/03 04:58:04;;;;;;;;;;;;;;;9.18;76.46;102633.84;5089400;28;20305;-86
2022/12/03 05:00:29;;;;;;;;;;;;;;;9.18;76.29;102633.84;5114095;28;20400;-87
2022/12/03 05:02:55;;;;;;;;;;;;;;;9.15;76.36;102638.78;5109796;27;19919;-87
2022/12/03 05:05:20;;;;;;;;;;;;;;;9.14;76.47;102632.66;5112460;27;19915;-86
2022/12/03 05:07:46;;;;;;;;;;;;;;;9.14;76.20;102637.88;5114463;27;20372;-87
2022/12/03 05:10:11;;;;;;;;;;;;;;;9.17;76.44;102639.84;5104688;28;19916;-87
2022/12/03 05:12:37;;;;;;;;;;;;;;;9.16;76.40;102641.53;5090026;27;19915;-87
2022/12/03 05:15:03;;;;;;;;;;;;;;;9.19;76.23;102643.50;5096830;27;19970;-86
2022/12/03 05:17:28;;;;;;;;;;;;;;;9.17;76.02;102651.19;5127465;27;20388;-87
2022/12/03 05:22:37;;;;;;;;;;;;;;;9.21;75.91;102657.59;5107641;27;19961;-86
2022/12/03 05:25:03;;;;;;;;;;;;;;;9.21;75.89;102654.03;5126002;27;19972;-86
2022/12/03 05:27:28;;;;;;;;;;;;;;;9.15;76.43;102657.94;5113049;27;19923;-86
2022/12/03 05:30:10;;;;;;;;;;;;;;;9.15;76.31;102663.16;5065365;27;20205;-87
2022/12/03 05:32:35;;;;;;;;;;;;;;;9.19;75.96;102653.94;5125891;27;20471;-86
2022/12/03 05:35:00;;;;;;;;;;;;;;;9.15;76.43;102655.34;5126775;27;19919;-85
2022/12/03 05:37:26;;;;;;;;;;;;;;;9.17;76.04;102658.09;5112152;27;19911;-87
2022/12/03 05:39:52;;;;;;;;;;;;;;;9.18;75.96;102665.13;5112403;27;19937;-87
2022/12/03 05:45:02;;;;;;;;;;;;;;;9.13;76.35;102656.88;5113294;27;20020;-87
2022/12/03 05:47:27;;;;;;;;;;;;;;;9.12;76.43;102662.91;5129885;27;19911;-87
2022/12/03 05:49:52;;;;;;;;;;;;;;;9.15;76.21;102665.75;5111948;27;20375;-87
2022/12/03 05:52:18;;;;;;;;;;;;;;;9.16;76.03;102667.63;5088274;27;19918;-85
2022/12/03 05:54:43;;;;;;;;;;;;;;;9.17;76.16;102660.69;5129639;27;19916;-87
2022/12/03 05:57:09;;;;;;;;;;;;;;;9.13;75.99;102659.50;5111444;28;20323;-86
2022/12/03 05:59:34;;;;;;;;;;;;;;;9.13;76.04;102659.50;5124517;27;20292;-86
2022/12/03 06:02:02;;;;;;;;;;;;;;;9.13;76.28;102656.88;5113590;28;19922;-89
2022/12/03 06:04:27;;;;;;;;;;;;;;;9.13;76.26;102667.31;5092161;28;19918;-88
2022/12/03 06:06:53;;;;;;;;;;;;;;;9.13;76.37;102664.72;5088862;28;20006;-87
2022/12/03 06:09:20;;;;;;;;;;;;;;;9.16;76.02;102675.44;5091004;28;19923;-88
2022/12/03 06:11:45;;;;;;;;;;;;;;;9.15;76.10;102668.38;5107004;28;19918;-88
2022/12/03 06:14:12;;;;;;;;;;;;;;;9.20;76.03;102668.78;5098085;28;19919;-89
2022/12/03 06:16:37;;;;;;;;;;;;;;;9.16;76.05;102672.81;5089361;28;20026;-89
2022/12/03 06:19:05;;;;;;;;;;;;;;;9.15;76.17;102668.38;5096810;28;20030;-89
2022/12/03 06:21:31;;;;;;;;;;;;;;;9.16;76.00;102682.31;5096948;28;20010;-87
2022/12/03 06:23:56;;;;;;;;;;;;;;;9.15;76.03;102676.19;5104423;28;20014;-87
2022/12/03 06:26:22;;;;;;;;;;;;;;;9.19;76.07;102674.78;5108703;28;20384;-86
2022/12/03 06:29:06;;;;;;;;;;;;;;;9.16;76.16;102680.66;5112384;28;20301;-86
2022/12/03 06:31:32;;;;;;;;;;;;;;;9.21;75.85;102680.13;5123973;28;19915;-88
2022/12/03 06:37:09;;;;;;;;;;;;;;;9.17;76.10;102685.06;5119356;28;19916;-87
2022/12/03 06:39:35;;;;;;;;;;;;;;;9.20;76.07;102689.63;5105572;28;19915;-88
2022/12/03 06:42:00;;;;;;;;;;;;;;;9.19;76.14;102684.31;5087594;28;20319;-87
2022/12/03 06:44:26;;;;;;;;;;;;;;;9.20;76.02;102688.72;5107475;28;20026;-86
2022/12/03 06:46:51;;;;;;;;;;;;;;;9.17;76.01;102682.47;5107880;28;20392;-86
2022/12/03 06:49:17;;;;;;;;;;;;;;;9.20;75.86;102686.13;5084901;28;19928;-87
2022/12/03 06:51:42;;;;;;;;;;;;;;;9.17;75.93;102697.19;5090284;28;20316;-87
2022/12/03 06:54:08;;;;;;;;;;;;;;;9.20;75.91;102692.25;5106175;28;20308;-86
2022/12/03 06:56:34;;;;;;;;;;;;;;;9.20;76.14;102692.25;5085346;28;20461;-86
2022/12/03 06:59:01;;;;;;;;;;;;;;;9.17;76.33;102698.09;5112587;28;19918;-88
2022/12/03 07:01:27;;;;;;;;;;;;;;;9.16;76.07;102701.50;5128340;28;20419;-87
2022/12/03 07:03:54;;;;;;;;;;;;;;;9.17;76.04;102695.50;5095951;28;20006;-89
2022/12/03 07:06:23;;;;;;;;;;;;;;;9.17;75.94;102697.19;5085676;28;19989;-87
2022/12/03 07:08:55;;;;;;;;;;;;;;;9.16;76.13;102688.47;5108688;28;19930;-86
2022/12/03 07:11:39;;;;;;;;;;;;;;;9.17;76.14;102695.50;5110847;28;19931;-86
2022/12/03 07:14:11;;;;;;;;;;;;;;;9.17;76.09;102699.81;5133231;27;19916;-88
2022/12/03 07:16:37;;;;;;;;;;;;;;;9.18;76.12;102691.19;5085455;28;19951;-86
2022/12/03 07:19:05;;;;;;;;;;;;;;;9.16;75.89;102695.34;5094931;28;20305;-86
2022/12/03 07:21:32;;;;;;;;;;;;;;;9.15;76.06;102699.66;5082056;28;19928;-89
2022/12/03 07:24:01;;;;;;;;;;;;;;;9.19;75.90;102694.72;5102325;28;19916;-86
2022/12/03 07:26:27;;;;;;;;;;;;;;;9.17;75.92;102692.88;5092716;28;20377;-85
2022/12/03 07:28:52;;;;;;;;;;;;;;;9.33;75.09;102686.44;5065241;28;20130;-89
2022/12/03 07:31:25;;;;;;;;;;;;;;;9.16;74.75;102695.34;5093539;28;19935;-85
2022/12/03 07:33:50;;;;;;;;;;;;;;;9.10;75.22;102703.53;5108677;28;19926;-85
2022/12/03 07:36:16;;;;;;;;;;;;;;;9.15;75.66;102702.25;5107597;28;19912;-84
2022/12/03 07:38:41;;;;;;;;;;;;;;;9.23;75.16;102699.41;5086335;28;20371;-84
2022/12/03 07:41:06;;;;;;;;;;;;;;;9.22;75.15;102702.81;5086901;28;19956;-86
2022/12/03 07:43:32;;;;;;;;;;;;;;;9.14;75.71;102697.84;5092308;28;19911;-85
2022/12/03 07:45:57;;;;;;;;;;;;;;;9.13;75.80;102702.91;5091730;28;19962;-87
2022/12/03 07:48:23;;;;;;;;;;;;;;;9.17;75.88;102705.00;5092268;28;19973;-87
2022/12/03 07:50:48;;;;;;;;;;;;;;;9.17;75.84;102710.22;5088143;28;19920;-88
2022/12/03 07:53:14;;;;;;;;;;;;;;;9.11;76.24;102707.06;5095946;28;19980;-89
2022/12/03 07:55:41;;;;;;;;;;;;;;;9.18;75.79;102714.66;5056772;28;19958;-90
2022/12/03 07:58:08;;;;;;;;;;;;;;;9.22;75.85;102711.53;5068704;28;20111;-93
2022/12/03 08:00:34;;;;;;;;;;;;;;;9.14;75.68;102713.47;5072057;28;19920;-88
2022/12/03 08:03:04;;;;;;;;;;;;;;;9.15;75.87;102715.28;5104061;28;19916;-94
2022/12/03 08:08:34;;;;;;;;;;;;;;;9.12;76.15;102728.06;5081046;28;19928;-90
2022/12/03 08:11:00;;;;;;;;;;;;;;;9.19;75.66;102732.13;5072396;28;19965;-91
2022/12/03 08:13:27;;;;;;;;;;;;;;;9.14;76.07;102725.56;5067140;28;19916;-93
2022/12/03 08:15:54;;;;;;;;;;;;;;;9.12;76.02;102727.13;5073911;28;19920;-89
2022/12/03 08:18:20;;;;;;;;;;;;;;;9.15;76.09;102735.25;5095305;28;19916;-89
2022/12/03 08:20:47;;;;;;;;;;;;;;;9.16;75.84;102731.84;5112669;28;19918;-88
2022/12/03 08:23:19;;;;;;;;;;;;;;;9.13;75.91;102732.47;5110136;28;20048;-88
2022/12/03 08:25:45;;;;;;;;;;;;;;;9.14;75.92;102731.72;5088341;28;19916;-91
2022/12/03 08:28:18;;;;;;;;;;;;;;;9.16;75.88;102726.63;5099540;28;19924;-88
2022/12/03 08:30:44;;;;;;;;;;;;;;;9.17;75.79;102731.06;5086242;28;20487;-89
2022/12/03 08:33:24;;;;;;;;;;;;;;;9.15;76.07;102727.41;5087401;28;19924;-86
2022/12/03 08:35:50;;;;;;;;;;;;;;;9.14;76.40;102723.91;5094557;28;19918;-86
2022/12/03 08:38:17;;;;;;;;;;;;;;;9.15;76.01;102719.59;5103685;28;20018;-87
2022/12/03 08:40:45;;;;;;;;;;;;;;;9.10;76.22;102720.84;5101777;28;20393;-88
2022/12/03 08:43:17;;;;;;;;;;;;;;;9.22;75.88;102721.06;5100067;28;19998;-89
2022/12/03 08:45:43;;;;;;;;;;;;;;;9.17;76.00;102718.94;5108485;28;20363;-90
2022/12/03 08:48:20;;;;;;;;;;;;;;;9.29;75.61;102720.84;5092727;28;20305;-91
2022/12/03 08:50:47;;;;;;;;;;;;;;;9.24;75.63;102707.38;5083235;28;19931;-91
2022/12/03 08:53:28;;;;;;;;;;;;;;;9.20;75.73;102712.19;5083358;28;19916;-92
2022/12/03 08:56:20;;;;;;;;;;;;;;;9.22;75.88;102710.63;5079918;28;19916;-90
2022/12/03 08:58:47;;;;;;;;;;;;;;;9.21;76.22;102709.72;5096101;28;19916;-88
2022/12/03 09:01:29;;;;;;;;;;;;;;;9.24;76.07;102711.69;5092399;28;19920;-89
2022/12/03 09:03:56;;;;;;;;;;;;;;;9.25;76.02;102708.28;5103274;28;20051;-88
2022/12/03 09:06:22;;;;;;;;;;;;;;;9.23;76.16;102710.78;5081134;28;19919;-88
2022/12/03 09:08:47;;;;;;;;;;;;;;;9.26;75.92;102704.94;5105959;28;20010;-86
2022/12/03 09:11:14;;;;;;;;;;;;;;;9.26;76.07;102708.44;5082412;28;19942;-91
2022/12/03 09:13:40;;;;;;;;;;;;;;;9.27;75.97;102711.94;5076755;28;19912;-90
2022/12/03 09:16:06;;;;;;;;;;;;;;;9.31;76.07;102716.66;5105907;28;19926;-90
2022/12/03 09:18:31;;;;;;;;;;;;;;;9.29;76.37;102720.84;5101072;28;19916;-90
2022/12/03 09:21:00;;;;;;;;;;;;;;;9.31;76.06;102716.66;5108831;28;20392;-87
2022/12/03 09:23:27;;;;;;;;;;;;;;;9.28;76.09;102719.00;5102252;28;20467;-87
2022/12/03 09:25:54;;;;;;;;;;;;;;;9.27;76.35;102723.31;5093035;28;19944;-88
2022/12/03 09:28:20;;;;;;;;;;;;;;;9.28;76.49;102724.22;5104141;28;19927;-89
2022/12/03 09:30:45;;;;;;;;;;;;;;;9.27;76.25;102720.72;5088099;28;20006;-90
2022/12/03 09:33:11;;;;;;;;;;;;;;;9.31;76.25;102717.63;5108967;28;19951;-87
2022/12/03 09:35:36;;;;;;;;;;;;;;;9.32;76.45;102716.81;5102882;28;20378;-86
2022/12/03 09:38:02;;;;;;;;;;;;;;;9.32;76.53;102718.53;5107404;28;20304;-86
2022/12/03 09:40:30;;;;;;;;;;;;;;;9.35;76.60;102716.19;5104392;28;20292;-88
2022/12/03 09:42:59;;;;;;;;;;;;;;;9.34;76.62;102715.28;5104167;28;19923;-87
2022/12/03 09:45:25;;;;;;;;;;;;;;;9.39;76.30;102715.69;5103565;28;19912;-87
2022/12/03 09:47:50;;;;;;;;;;;;;;;9.38;76.59;102711.25;5104534;28;19949;-87
2022/12/03 09:50:21;;;;;;;;;;;;;;;9.40;76.06;102712.31;5098888;28;20328;-85
2022/12/03 09:52:48;;;;;;;;;;;;;;;9.41;76.22;102708.91;5081385;28;19928;-85
2022/12/03 09:55:16;;;;;;;;;;;;;;;9.45;76.50;102705.78;5110648;28;19916;-86
2022/12/03 09:57:42;;;;;;;;;;;;;;;9.48;76.28;102702.53;5106745;28;19916;-85
2022/12/03 10:00:15;;;;;;;;;;;;;;;9.48;76.64;102703.47;5107943;28;20378;-85
2022/12/03 10:02:40;;;;;;;;;;;;;;;9.48;76.61;102708.69;5074493;28;20301;-85
2022/12/03 10:05:08;;;;;;;;;;;;;;;9.46;76.59;102701.50;5103059;28;19931;-85
2022/12/03 10:07:34;;;;;;;;;;;;;;;9.51;76.63;102708.06;5089756;28;20042;-85
2022/12/03 10:09:59;;;;;;;;;;;;;;;9.45;76.87;102700.59;5097689;28;19955;-86
2022/12/03 10:12:25;;;;;;;;;;;;;;;9.50;76.73;102700.97;5100949;28;20309;-85
2022/12/03 10:14:50;;;;;;;;;;;;;;;9.46;76.16;102693.66;5103484;28;20411;-85
2022/12/03 10:17:16;;;;;;;;;;;;;;;9.53;76.39;102691.75;5097066;28;19920;-85
2022/12/03 10:19:44;;;;;;;;;;;;;;;9.55;76.42;102677.16;5110461;28;19912;-85
2022/12/03 10:22:10;;;;;;;;;;;;;;;9.60;76.20;102680.16;5102273;28;20381;-85
2022/12/03 10:24:35;;;;;;;;;;;;;;;9.60;76.81;102684.47;5109401;28;20029;-85
2022/12/03 10:27:19;;;;;;;;;;;;;;;9.69;76.54;102686.19;5092594;28;20396;-85
2022/12/03 10:29:52;;;;;;;;;;;;;;;9.61;77.23;102679.41;5098551;28;19924;-85
2022/12/03 10:32:17;;;;;;;;;;;;;;;9.58;77.42;102679.13;5103930;28;19920;-85
2022/12/03 10:34:44;;;;;;;;;;;;;;;9.63;77.54;102671.69;5104435;28;20581;-84
2022/12/03 10:37:14;;;;;;;;;;;;;;;9.63;77.61;102679.50;5111191;28;19918;-84
2022/12/03 10:39:55;;;;;;;;;;;;;;;9.58;77.81;102671.28;5105872;28;19919;-85
2022/12/03 10:42:20;;;;;;;;;;;;;;;9.65;78.17;102670.13;5105613;28;19912;-85
2022/12/03 10:44:46;;;;;;;;;;;;;;;9.64;77.98;102671.84;5090981;28;19912;-85
2022/12/03 10:47:12;;;;;;;;;;;;;;;9.65;78.65;102676.28;5105451;28;19924;-85
2022/12/03 10:49:38;;;;;;;;;;;;;;;9.67;78.55;102672.13;5106356;28;20529;-85
2022/12/03 10:52:04;;;;;;;;;;;;;;;9.72;78.12;102677.75;5106475;28;19920;-85
2022/12/03 10:54:29;;;;;;;;;;;;;;;9.75;78.92;102673.69;5107717;28;20364;-86
2022/12/03 10:56:55;;;;;;;;;;;;;;;9.76;78.01;102679.84;5098119;28;19912;-86
2022/12/03 10:59:21;;;;;;;;;;;;;;;9.76;78.85;102682.44;5080010;28;20316;-85
2022/12/03 11:01:47;;;;;;;;;;;;;;;9.72;78.96;102675.13;5099970;28;20321;-85
2022/12/03 11:04:20;;;;;;;;;;;;;;;9.71;79.11;102679.41;5104236;28;19919;-85
2022/12/03 11:06:45;;;;;;;;;;;;;;;9.70;78.98;102679.28;5111325;28;19920;-85
2022/12/03 11:09:13;;;;;;;;;;;;;;;9.74;78.38;102669.25;5102691;28;20413;-85
2022/12/03 11:11:38;;;;;;;;;;;;;;;9.77;78.64;102672.13;5105959;28;20314;-86
2022/12/03 11:14:04;;;;;;;;;;;;;;;9.78;78.41;102662.63;5108836;28;20455;-84
2022/12/03 11:16:38;;;;;;;;;;;;;;;9.79;78.18;102662.72;5097570;28;20441;-85
2022/12/03 11:19:04;;;;;;;;;;;;;;;9.79;78.54;102657.50;5077111;28;19950;-84
2022/12/03 11:21:30;;;;;;;;;;;;;;;9.84;78.90;102655.34;5071761;28;19920;-86
2022/12/03 11:23:58;;;;;;;;;;;;;;;9.79;79.53;102661.81;5078706;28;20340;-86
2022/12/03 11:26:37;;;;;;;;;;;;;;;9.86;78.67;102673.72;5094156;28;20484;-85
2022/12/03 11:29:03;;;;;;;;;;;;;;;9.78;79.05;102671.34;5088176;28;20393;-85
2022/12/03 11:31:37;;;;;;;;;;;;;;;9.82;79.21;102669.00;5067638;28;20352;-86
2022/12/03 11:34:21;;;;;;;;;;;;;;;9.86;78.61;102664.19;5083824;28;19917;-87
2022/12/03 11:37:05;;;;;;;;;;;;;;;9.89;78.88;102659.25;5093848;28;19911;-86
2022/12/03 11:39:54;;;;;;;;;;;;;;;9.83;79.00;102663.94;5089594;28;19919;-86
2022/12/03 11:42:26;;;;;;;;;;;;;;;9.86;79.77;102664.19;5090556;28;19912;-86
2022/12/03 11:45:03;;;;;;;;;;;;;;;9.86;78.97;102658.06;5087269;28;19923;-86
2022/12/03 11:47:38;;;;;;;;;;;;;;;9.83;79.11;102665.63;5090586;28;20328;-86
2022/12/03 11:50:19;;;;;;;;;;;;;;;9.89;79.71;102664.47;5078801;28;20390;-85
2022/12/03 11:52:45;;;;;;;;;;;;;;;9.92;79.09;102656.88;5087942;28;19966;-87
2022/12/03 11:55:13;;;;;;;;;;;;;;;9.99;78.95;102659.28;5091353;28;19942;-85
2022/12/03 11:57:39;;;;;;;;;;;;;;;9.87;79.54;102660.81;5089719;28;20348;-91
2022/12/03 12:00:17;;;;;;;;;;;;;;;9.87;79.78;102667.72;5083523;28;19912;-89
2022/12/03 12:02:42;;;;;;;;;;;;;;;9.88;79.74;102662.63;5082880;28;20042;-88
2022/12/03 12:05:40;;;;;;;;;;;;;;;9.99;78.97;102666.19;5073825;28;20023;-87
2022/12/03 12:08:16;;;;;;;;;;;;;;;9.88;79.69;102675.66;5046402;28;19963;-86
2022/12/03 12:10:44;;;;;;;;;;;;;;;9.94;79.13;102676.22;5090389;28;19916;-86
2022/12/03 12:13:36;;;;;;;;;;;;;;;9.95;79.62;102680.66;5087525;28;19924;-87
2022/12/03 12:16:03;;;;;;;;;;;;;;;10.03;79.16;102672.56;5066106;27;20026;-86
2022/12/03 12:18:41;;;;;;;;;;;;;;;9.95;79.61;102680.66;5108560;27;19916;-86
2022/12/03 12:21:25;;;;;;;;;;;;;;;9.95;79.67;102677.16;5122876;27;19912;-87
2022/12/03 12:23:51;;;;;;;;;;;;;;;9.96;79.30;102682.47;5110769;27;19911;-87
2022/12/03 12:26:16;;;;;;;;;;;;;;;10.03;78.69;102669.97;5114759;27;19911;-87
2022/12/03 12:28:42;;;;;;;;;;;;;;;10.08;78.55;102687.88;5121533;27;20596;-86
2022/12/03 12:31:10;;;;;;;;;;;;;;;10.04;79.11;102677.03;5133065;27;20324;-86
2022/12/03 12:33:36;;;;;;;;;;;;;;;9.93;79.39;102678.72;5114169;27;19998;-85
2022/12/03 12:36:04;;;;;;;;;;;;;;;9.91;80.01;102678.56;5123588;27;20002;-85
2022/12/03 12:38:30;;;;;;;;;;;;;;;9.92;79.89;102679.47;5088456;27;19915;-86
2022/12/03 12:40:55;;;;;;;;;;;;;;;9.88;80.09;102678.28;5105600;27;20449;-86
2022/12/03 12:43:22;;;;;;;;;;;;;;;9.90;79.46;102687.16;5109990;27;20443;-86
2022/12/03 12:45:47;;;;;;;;;;;;;;;9.95;79.19;102683.28;5132390;27;20003;-86
2022/12/03 12:48:13;;;;;;;;;;;;;;;9.89;79.86;102679.22;5089857;27;19957;-86
2022/12/03 12:50:39;;;;;;;;;;;;;;;9.94;79.74;102686.66;5129038;27;19915;-86
2022/12/03 12:53:10;;;;;;;;;;;;;;;9.92;79.72;102682.97;5115219;27;19916;-88
2022/12/03 12:55:37;;;;;;;;;;;;;;;9.97;79.73;102686.94;5115455;27;19911;-87
2022/12/03 12:58:24;;;;;;;;;;;;;;;9.95;79.47;102678.06;5087485;28;19953;-85
2022/12/03 13:00:52;;;;;;;;;;;;;;;10.05;78.95;102678.84;5124898;27;20010;-88
2022/12/03 13:03:18;;;;;;;;;;;;;;;10.06;79.93;102678.97;5109643;27;20007;-88
2022/12/03 13:05:45;;;;;;;;;;;;;;;9.98;79.52;102683.53;5102560;27;19961;-88
2022/12/03 13:08:19;;;;;;;;;;;;;;;9.96;79.69;102684.19;5112734;27;19919;-86
2022/12/03 13:10:45;;;;;;;;;;;;;;;9.92;79.93;102682.97;5132997;27;19912;-87
2022/12/03 13:13:15;;;;;;;;;;;;;;;9.99;79.70;102687.97;5097237;27;20309;-86
2022/12/03 13:15:40;;;;;;;;;;;;;;;9.96;79.51;102692.91;5132781;27;19911;-87
2022/12/03 13:18:29;;;;;;;;;;;;;;;9.95;80.12;102688.50;5112998;27;20303;-86
2022/12/03 13:20:55;;;;;;;;;;;;;;;10.07;79.85;102687.72;5124085;27;19920;-87
2022/12/03 13:23:24;;;;;;;;;;;;;;;10.02;79.79;102689.94;5090855;28;19951;-86
2022/12/03 13:25:50;;;;;;;;;;;;;;;10.06;80.17;102694.66;5116182;27;20477;-86